Time;durP1;ratioP1;P1;durP2;ratioP2;P2;SDS_P1;SDS_P2;PMS_P1;PMS_P2;Temp;Humidity;BMP_temperature;BMP_pressure;BME280_temperature;BME280_humidity;BME280_pressure;Samples;Min_cycle;Max_cycle;Signal;HPM_P1;HPM_P2
2022/11/22 00:00:26;;;;;;;3.50;1.53;;;1.40;99.90;;;;;;5096840;28;20461;-80
2022/11/22 00:02:54;;;;;;;2.70;1.50;;;1.40;99.90;;;;;;5101294;28;20834;-82
2022/11/22 00:05:21;;;;;;;3.33;1.47;;;1.30;99.90;;;;;;5099236;28;20458;-81
2022/11/22 00:07:48;;;;;;;1.40;1.20;;;1.30;99.90;;;;;;5095171;28;20487;-81
2022/11/22 00:10:16;;;;;;;1.73;1.43;;;1.30;99.90;;;;;;5101175;28;20485;-79
2022/11/22 00:12:44;;;;;;;1.83;1.30;;;1.30;99.90;;;;;;5098308;28;20526;-80
2022/11/22 00:15:12;;;;;;;1.73;1.57;;;1.30;99.90;;;;;;5105440;28;20601;-80
2022/11/22 00:17:39;;;;;;;2.20;1.27;;;1.30;99.90;;;;;;5099423;28;20582;-80
2022/11/22 00:20:09;;;;;;;1.13;1.03;;;1.30;99.90;;;;;;5092630;28;20818;-80
2022/11/22 00:22:36;;;;;;;1.23;1.03;;;1.30;99.90;;;;;;5095831;28;20450;-79
2022/11/22 00:25:04;;;;;;;3.40;1.37;;;1.20;99.90;;;;;;5096363;28;20519;-79
2022/11/22 00:27:32;;;;;;;1.83;1.10;;;1.20;99.90;;;;;;5100962;28;20881;-79
2022/11/22 00:30:00;;;;;;;1.27;1.17;;;1.10;99.90;;;;;;5099505;28;20481;-80
2022/11/22 00:32:27;;;;;;;1.53;1.40;;;1.20;99.90;;;;;;5099806;28;21104;-79
2022/11/22 00:34:54;;;;;;;1.63;1.53;;;1.10;99.90;;;;;;5101222;28;20507;-79
2022/11/22 00:37:21;;;;;;;2.07;1.03;;;1.10;99.90;;;;;;5097116;28;20485;-79
2022/11/22 00:39:48;;;;;;;1.60;1.43;;;1.10;99.90;;;;;;5100892;28;20466;-79
2022/11/22 00:42:15;;;;;;;2.70;1.37;;;1.10;99.90;;;;;;5098320;28;20480;-79
2022/11/22 00:44:42;;;;;;;1.77;1.60;;;1.10;99.90;;;;;;5097590;28;20983;-79
2022/11/22 00:47:11;;;;;;;2.23;1.80;;;1.00;99.90;;;;;;5093841;28;20507;-79
2022/11/22 00:49:38;;;;;;;1.87;1.37;;;1.00;99.90;;;;;;5101567;28;20487;-79
2022/11/22 00:52:06;;;;;;;2.03;1.70;;;1.10;99.90;;;;;;5103701;28;20496;-79
2022/11/22 00:54:33;;;;;;;1.43;1.23;;;1.20;99.90;;;;;;5100691;28;20469;-79
2022/11/22 00:57:00;;;;;;;3.00;1.57;;;1.30;99.90;;;;;;5100638;28;20510;-79
2022/11/22 00:59:27;;;;;;;1.67;1.23;;;1.30;99.90;;;;;;5100306;28;20565;-79
2022/11/22 01:01:54;;;;;;;3.77;1.87;;;1.20;99.90;;;;;;5102208;28;20461;-79
2022/11/22 01:04:23;;;;;;;2.10;1.90;;;1.30;99.90;;;;;;5101031;28;20490;-80
2022/11/22 01:06:50;;;;;;;3.50;2.37;;;1.30;99.90;;;;;;5103235;28;20497;-80
2022/11/22 01:09:19;;;;;;;1.97;1.83;;;1.30;99.90;;;;;;5102621;28;20483;-79
2022/11/22 01:11:46;;;;;;;3.13;1.93;;;1.30;99.90;;;;;;5100742;28;20549;-80
2022/11/22 01:14:13;;;;;;;1.90;1.65;;;1.30;99.90;;;;;;5088599;28;20932;-80
2022/11/22 01:16:40;;;;;;;1.83;1.73;;;1.40;99.90;;;;;;5098857;28;20207;-78
2022/11/22 01:19:08;;;;;;;2.30;2.10;;;1.30;99.90;;;;;;5104412;28;20460;-78
2022/11/22 01:21:37;;;;;;;2.93;2.20;;;1.20;99.90;;;;;;5104715;28;20472;-78
2022/11/22 01:24:04;;;;;;;4.07;2.45;;;1.30;99.90;;;;;;5109689;28;20457;-79
2022/11/22 01:26:31;;;;;;;2.10;2.00;;;1.30;99.90;;;;;;5106873;28;20626;-78
2022/11/22 01:28:58;;;;;;;3.70;1.80;;;1.40;99.90;;;;;;5103534;28;21150;-78
2022/11/22 01:31:25;;;;;;;2.20;2.00;;;1.40;99.90;;;;;;5102743;28;20486;-79
2022/11/22 01:33:51;;;;;;;2.17;2.05;;;1.40;99.90;;;;;;5096021;28;20494;-79
2022/11/22 01:36:18;;;;;;;1.80;1.43;;;1.30;99.90;;;;;;5102082;28;20211;-79
2022/11/22 01:38:47;;;;;;;1.60;1.50;;;1.20;99.90;;;;;;5099130;28;20481;-79
2022/11/22 01:41:14;;;;;;;2.23;1.93;;;1.10;99.90;;;;;;5094098;28;20465;-78
2022/11/22 01:43:41;;;;;;;3.87;1.70;;;1.10;99.90;;;;;;5101065;28;20470;-79
2022/11/22 01:46:15;;;;;;;1.67;1.57;;;1.10;99.90;;;;;;5103156;28;20470;-78
2022/11/22 01:48:52;;;;;;;2.93;2.73;;;1.00;99.90;;;;;;5101740;28;20538;-78
2022/11/22 01:51:25;;;;;;;2.40;1.50;;;1.00;99.90;;;;;;5095836;28;20483;-78
2022/11/22 01:53:56;;;;;;;3.27;1.80;;;1.00;99.90;;;;;;5089153;28;20457;-78
2022/11/22 01:56:24;;;;;;;2.70;1.87;;;1.00;99.90;;;;;;5101879;28;20458;-79
2022/11/22 01:58:57;;;;;;;3.37;1.33;;;1.10;99.90;;;;;;5100852;28;20473;-78
2022/11/22 02:01:24;;;;;;;1.90;1.30;;;1.00;99.90;;;;;;5093861;28;20874;-80
2022/11/22 02:03:53;;;;;;;3.03;2.77;;;1.00;99.90;;;;;;5099650;28;20469;-80
2022/11/22 02:06:21;;;;;;;2.77;2.57;;;1.20;99.90;;;;;;5101406;28;21131;-81
2022/11/22 02:08:56;;;;;;;2.23;2.00;;;1.20;99.90;;;;;;5099984;28;20465;-81
2022/11/22 02:11:26;;;;;;;2.07;1.90;;;1.20;99.90;;;;;;5093934;28;21045;-80
2022/11/22 02:13:54;;;;;;;2.83;2.63;;;1.10;99.90;;;;;;5098036;28;20456;-81
2022/11/22 02:16:22;;;;;;;4.70;1.73;;;1.20;99.90;;;;;;5094469;28;20545;-78
2022/11/22 02:18:49;;;;;;;3.50;2.23;;;1.10;99.90;;;;;;5102729;28;20461;-78
2022/11/22 02:21:16;;;;;;;5.00;2.10;;;1.10;99.90;;;;;;5099479;28;20538;-78
2022/11/22 02:23:54;;;;;;;2.37;2.17;;;1.10;99.90;;;;;;5094830;28;20480;-78
2022/11/22 02:26:27;;;;;;;3.00;2.63;;;1.00;99.90;;;;;;5094609;28;21128;-78
2022/11/22 02:28:56;;;;;;;4.63;2.73;;;1.00;99.90;;;;;;5097641;28;21173;-78
2022/11/22 02:31:42;;;;;;;4.37;3.33;;;1.00;99.90;;;;;;5093825;28;20493;-79
2022/11/22 02:34:09;;;;;;;2.67;2.20;;;1.00;99.90;;;;;;5091088;28;20462;-78
2022/11/22 02:36:41;;;;;;;5.20;3.40;;;0.90;99.90;;;;;;5104058;28;20501;-78
2022/11/22 02:39:11;;;;;;;4.50;3.00;;;0.90;99.90;;;;;;5091188;28;21003;-78
2022/11/22 02:41:40;;;;;;;3.57;3.27;;;0.90;99.90;;;;;;5100747;28;20939;-78
2022/11/22 02:44:11;;;;;;;2.20;2.00;;;0.80;99.90;;;;;;5104656;28;20522;-79
2022/11/22 02:46:47;;;;;;;3.63;2.93;;;0.80;99.90;;;;;;5105465;28;20457;-79
2022/11/22 02:49:17;;;;;;;3.50;2.67;;;0.80;99.90;;;;;;5098122;28;20933;-78
2022/11/22 02:51:44;;;;;;;6.60;3.43;;;0.80;99.90;;;;;;5098140;28;20569;-78
2022/11/22 02:54:11;;;;;;;4.20;2.47;;;0.70;99.90;;;;;;5106329;28;20538;-81
2022/11/22 02:56:39;;;;;;;3.27;2.77;;;0.70;99.90;;;;;;5101469;28;20449;-81
2022/11/22 02:59:06;;;;;;;4.93;3.60;;;0.70;99.90;;;;;;5095763;28;20458;-81
2022/11/22 03:01:33;;;;;;;3.00;2.77;;;0.70;99.90;;;;;;5100646;28;20453;-81
2022/11/22 03:04:00;;;;;;;5.13;3.27;;;0.70;99.90;;;;;;5101022;28;20973;-81
2022/11/22 03:06:27;;;;;;;7.40;3.90;;;0.70;99.90;;;;;;5100198;28;20504;-81
2022/11/22 03:08:54;;;;;;;3.53;2.67;;;0.70;99.90;;;;;;5098557;28;20537;-78
2022/11/22 03:11:21;;;;;;;4.60;3.53;;;0.70;99.90;;;;;;5099004;28;20485;-78
2022/11/22 03:13:50;;;;;;;3.13;2.80;;;0.60;99.90;;;;;;5099539;28;20454;-78
2022/11/22 03:16:17;;;;;;;7.83;3.87;;;0.70;99.90;;;;;;5097879;28;20470;-79
2022/11/22 03:18:44;;;;;;;4.83;3.97;;;0.60;99.90;;;;;;5095880;28;20756;-78
2022/11/22 03:21:11;;;;;;;3.27;3.07;;;0.70;99.90;;;;;;5096529;28;20461;-78
2022/11/22 03:23:38;;;;;;;6.53;3.53;;;0.70;99.90;;;;;;5102266;28;20550;-78
2022/11/22 03:26:07;;;;;;;6.03;3.03;;;0.80;99.90;;;;;;5102217;28;20462;-78
2022/11/22 03:28:34;;;;;;;4.60;2.93;;;0.90;99.90;;;;;;5098418;28;20477;-78
2022/11/22 03:31:05;;;;;;;7.07;3.70;;;0.90;99.90;;;;;;5098460;28;20584;-78
2022/11/22 03:33:32;;;;;;;3.63;3.33;;;0.90;99.90;;;;;;5100489;28;20501;-78
2022/11/22 03:35:59;;;;;;;4.10;3.70;;;0.90;99.90;;;;;;5103475;28;20466;-78
2022/11/22 03:38:26;;;;;;;4.17;3.77;;;1.00;99.90;;;;;;5086797;28;20503;-78
2022/11/22 03:40:53;;;;;;;4.80;4.23;;;1.00;99.90;;;;;;5097401;28;20466;-78
2022/11/22 03:43:20;;;;;;;5.90;4.07;;;1.10;99.90;;;;;;5101863;28;20486;-78
2022/11/22 03:45:47;;;;;;;6.30;4.17;;;1.10;99.90;;;;;;5093772;28;20474;-79
2022/11/22 03:48:16;;;;;;;5.13;4.57;;;1.20;99.90;;;;;;5097113;28;20815;-78
2022/11/22 03:50:43;;;;;;;7.40;5.87;;;1.20;99.90;;;;;;5102351;28;20473;-78
2022/11/22 03:53:10;;;;;;;8.53;5.93;;;1.20;99.90;;;;;;5102930;28;20607;-79
2022/11/22 03:55:37;;;;;;;6.30;4.50;;;1.20;99.90;;;;;;5101202;28;20928;-78
2022/11/22 03:58:04;;;;;;;5.80;5.20;;;1.30;99.90;;;;;;5097016;28;20784;-78
2022/11/22 04:00:32;;;;;;;6.97;6.30;;;1.30;99.90;;;;;;5096164;28;20633;-79
2022/11/22 04:02:59;;;;;;;9.10;5.73;;;1.30;99.90;;;;;;5101507;28;20541;-79
2022/11/22 04:05:27;;;;;;;6.00;4.50;;;1.30;99.90;;;;;;5105803;28;20483;-79
2022/11/22 04:07:57;;;;;;;6.90;6.27;;;1.30;99.90;;;;;;5106502;28;20627;-79
2022/11/22 04:10:24;;;;;;;13.13;7.87;;;1.30;99.90;;;;;;5102341;28;20493;-78
2022/11/22 04:12:51;;;;;;;8.00;6.50;;;1.30;99.90;;;;;;5100347;28;20513;-79
2022/11/22 04:15:17;;;;;;;10.17;7.80;;;1.30;99.90;;;;;;5098641;28;20541;-79
2022/11/22 04:17:46;;;;;;;8.80;7.10;;;1.20;99.90;;;;;;5096089;28;20534;-79
2022/11/22 04:23:04;;;;;;;7.27;6.00;;;1.20;99.90;;;;;;5091699;28;20433;-79
2022/11/22 04:25:32;;;;;;;8.70;7.40;;;1.20;99.90;;;;;;5099751;28;20635;-79
2022/11/22 04:28:00;;;;;;;10.87;8.10;;;1.20;99.90;;;;;;5101589;28;20853;-80
2022/11/22 04:33:08;;;;;;;15.20;9.37;;;1.20;99.90;;;;;;5097533;28;20910;-80
2022/11/22 04:35:36;;;;;;;10.30;7.50;;;1.20;99.90;;;;;;5100894;28;20534;-79
2022/11/22 04:38:04;;;;;;;9.60;8.60;;;1.10;99.90;;;;;;5094008;28;20487;-80
2022/11/22 04:40:32;;;;;;;11.17;7.67;;;1.10;99.90;;;;;;5095988;28;20457;-80
2022/11/22 04:45:43;;;;;;;15.97;11.33;;;1.10;99.90;;;;;;5098302;28;20453;-79
2022/11/22 04:48:11;;;;;;;14.17;11.03;;;1.10;99.90;;;;;;5100022;27;22020;-79
2022/11/22 04:53:26;;;;;;;11.07;8.43;;;1.00;99.90;;;;;;5096869;28;20606;-79
2022/11/22 04:55:53;;;;;;;11.80;8.00;;;1.00;99.90;;;;;;5097180;28;20517;-79
2022/11/22 04:58:20;;;;;;;11.90;8.17;;;0.90;99.90;;;;;;5091553;28;21131;-79
2022/11/22 05:00:48;;;;;;;14.07;10.63;;;0.90;99.90;;;;;;5097178;28;20882;-80
2022/11/22 05:03:15;;;;;;;13.90;9.97;;;0.90;99.90;;;;;;5101985;28;20538;-79
2022/11/22 05:05:43;;;;;;;16.50;10.30;;;0.90;99.90;;;;;;5098336;28;21028;-80
2022/11/22 05:08:11;;;;;;;13.40;10.37;;;0.90;99.90;;;;;;5099098;28;20473;-79
2022/11/22 05:13:25;;;;;;;15.17;9.47;;;0.90;99.90;;;;;;5092498;28;20454;-80
2022/11/22 05:15:52;;;;;;;16.93;11.43;;;1.00;99.90;;;;;;5099166;28;20465;-79
2022/11/22 05:18:19;;;;;;;14.67;9.47;;;1.00;99.90;;;;;;5092740;28;20473;-79
2022/11/22 05:20:47;;;;;;;13.23;9.77;;;0.90;99.90;;;;;;5097390;28;20510;-79
2022/11/22 05:26:00;;;;;;;16.77;9.93;;;0.80;99.90;;;;;;5099141;28;20461;-80
2022/11/22 05:28:28;;;;;;;17.57;11.20;;;0.90;99.90;;;;;;5096939;28;20478;-80
2022/11/22 05:30:55;;;;;;;12.23;9.00;;;1.00;99.90;;;;;;5099803;28;20553;-80
2022/11/22 05:33:23;;;;;;;13.80;11.33;;;1.00;99.90;;;;;;5092516;28;20488;-80
2022/11/22 05:35:50;;;;;;;18.88;11.50;;;1.00;99.90;;;;;;5102497;28;20782;-80
2022/11/22 05:38:17;;;;;;;15.70;12.07;;;1.00;99.90;;;;;;5100600;28;20216;-80
2022/11/22 05:40:44;;;;;;;15.57;10.67;;;1.00;99.90;;;;;;5091547;28;20261;-80
2022/11/22 05:43:12;;;;;;;13.90;9.93;;;1.00;99.90;;;;;;5101645;28;20902;-80
2022/11/22 05:45:39;;;;;;;16.90;11.40;;;1.10;99.90;;;;;;5092107;28;21427;-80
2022/11/22 05:48:06;;;;;;;16.53;11.13;;;1.20;99.90;;;;;;5101008;28;20493;-80
2022/11/22 05:50:34;;;;;;;20.17;14.10;;;1.20;99.90;;;;;;5096061;28;20864;-80
2022/11/22 05:53:01;;;;;;;15.80;9.80;;;1.10;99.90;;;;;;5099781;28;20495;-80
2022/11/22 05:55:29;;;;;;;16.90;12.43;;;1.20;99.90;;;;;;5095052;28;20553;-79
2022/11/22 05:57:56;;;;;;;15.97;11.50;;;1.20;99.90;;;;;;5095748;28;20498;-80
2022/11/22 06:00:24;;;;;;;16.13;10.55;;;1.10;99.90;;;;;;5095279;28;20500;-80
2022/11/22 06:02:51;;;;;;;19.80;14.17;;;1.20;99.90;;;;;;5096037;28;20203;-79
2022/11/22 06:05:18;;;;;;;17.57;11.87;;;1.20;99.90;;;;;;5093447;28;20469;-79
2022/11/22 06:07:46;;;;;;;22.53;12.53;;;1.30;99.90;;;;;;5090503;28;20947;-78
2022/11/22 06:10:13;;;;;;;19.77;12.47;;;1.30;99.90;;;;;;5099568;28;20483;-80
2022/11/22 06:12:40;;;;;;;15.50;10.00;;;1.30;99.90;;;;;;5098629;28;20516;-81
2022/11/22 06:15:08;;;;;;;14.90;11.80;;;1.40;99.90;;;;;;5101768;28;20458;-80
2022/11/22 06:17:36;;;;;;;15.57;10.57;;;1.40;99.90;;;;;;5096489;28;20599;-80
2022/11/22 06:20:03;;;;;;;16.17;10.50;;;1.30;99.90;;;;;;5102753;28;20521;-80
2022/11/22 06:22:30;;;;;;;13.27;9.10;;;1.30;99.90;;;;;;5099160;28;20489;-80
2022/11/22 06:24:57;;;;;;;19.57;12.00;;;1.20;99.90;;;;;;5094563;28;20490;-80
2022/11/22 06:27:24;;;;;;;19.33;12.33;;;1.20;99.90;;;;;;5103021;28;20961;-79
2022/11/22 06:29:51;;;;;;;17.03;10.87;;;1.10;99.90;;;;;;5107116;28;20511;-80
2022/11/22 06:32:18;;;;;;;18.63;11.53;;;1.20;99.90;;;;;;5100301;28;20518;-80
2022/11/22 06:34:46;;;;;;;16.50;11.67;;;1.20;99.90;;;;;;5096655;28;20493;-80
2022/11/22 06:37:15;;;;;;;16.93;11.20;;;1.40;99.90;;;;;;5103566;28;20492;-81
2022/11/22 06:39:42;;;;;;;15.17;11.40;;;1.50;99.90;;;;;;5098278;28;20457;-80
2022/11/22 06:42:09;;;;;;;15.60;11.00;;;1.50;99.90;;;;;;5099030;28;21041;-80
2022/11/22 06:44:35;;;;;;;19.33;13.00;;;1.50;99.90;;;;;;5096163;28;20483;-80
2022/11/22 06:47:02;;;;;;;17.90;12.47;;;1.40;99.90;;;;;;5098466;28;20493;-80
2022/11/22 06:49:29;;;;;;;18.20;11.87;;;1.50;99.90;;;;;;5099872;28;21530;-80
2022/11/22 06:51:58;;;;;;;15.30;11.00;;;1.60;99.90;;;;;;5101184;28;20521;-80
2022/11/22 06:54:25;;;;;;;16.33;11.43;;;1.70;99.90;;;;;;5101610;28;20472;-80
2022/11/22 06:56:52;;;;;;;19.03;12.13;;;1.70;99.90;;;;;;5100436;28;20470;-80
2022/11/22 06:59:19;;;;;;;11.97;9.97;;;1.60;99.90;;;;;;5094829;28;21344;-80
2022/11/22 07:01:46;;;;;;;17.87;10.40;;;1.60;99.90;;;;;;5089607;28;20527;-81
2022/11/22 07:04:13;;;;;;;13.07;10.37;;;1.50;99.90;;;;;;5091198;28;20505;-80
2022/11/22 07:06:40;;;;;;;20.97;13.57;;;1.50;99.90;;;;;;5090444;28;21018;-81
2022/11/22 07:09:10;;;;;;;14.90;11.80;;;1.50;99.90;;;;;;5093034;28;20472;-81
2022/11/22 07:11:37;;;;;;;83.10;53.73;;;1.50;99.90;;;;;;5092512;28;20985;-81
2022/11/22 07:14:05;;;;;;;102.00;58.13;;;1.50;99.90;;;;;;5092424;28;20542;-80
2022/11/22 07:16:32;;;;;;;34.87;25.47;;;1.60;99.90;;;;;;5082889;28;20555;-80
2022/11/22 07:19:00;;;;;;;26.33;17.30;;;1.60;99.90;;;;;;5082722;27;20462;-81
2022/11/22 07:21:27;;;;;;;26.30;14.40;;;1.70;99.90;;;;;;5086054;28;20473;-81
2022/11/22 07:23:55;;;;;;;23.47;13.33;;;1.70;99.90;;;;;;5087001;28;21043;-80
2022/11/22 07:26:26;;;;;;;18.53;12.60;;;1.60;99.90;;;;;;5089069;28;20520;-80
2022/11/22 07:28:53;;;;;;;18.50;13.43;;;1.60;99.90;;;;;;5087775;28;20985;-80
2022/11/22 07:31:20;;;;;;;17.67;13.23;;;1.60;99.90;;;;;;5082178;28;20482;-80
2022/11/22 07:33:47;;;;;;;23.33;17.63;;;1.70;99.90;;;;;;5084294;27;21020;-80
2022/11/22 07:36:17;;;;;;;18.77;12.33;;;1.90;99.90;;;;;;5091471;28;20465;-81
2022/11/22 07:38:44;;;;;;;17.20;11.20;;;1.90;99.90;;;;;;5099484;28;21036;-81
2022/11/22 07:41:11;;;;;;;20.47;11.10;;;1.80;99.90;;;;;;5091527;28;20935;-80
2022/11/22 07:43:40;;;;;;;24.00;11.50;;;1.90;99.90;;;;;;5081643;28;20462;-80
2022/11/22 07:46:11;;;;;;;20.27;14.20;;;1.90;99.90;;;;;;5089050;28;20498;-80
2022/11/22 07:48:38;;;;;;;17.90;13.47;;;2.00;99.90;;;;;;5085764;28;20506;-81
2022/11/22 07:51:06;;;;;;;24.20;15.47;;;1.90;99.90;;;;;;5084617;28;20474;-81
2022/11/22 07:53:33;;;;;;;18.40;11.17;;;2.00;99.90;;;;;;5094437;28;21022;-80
2022/11/22 07:56:03;;;;;;;15.80;11.27;;;2.00;99.90;;;;;;5086493;28;20861;-81
2022/11/22 07:58:30;;;;;;;17.70;12.33;;;1.90;99.90;;;;;;5080150;28;20551;-80
2022/11/22 08:01:03;;;;;;;19.60;14.00;;;1.90;99.90;;;;;;5081018;27;21880;-81
2022/11/22 08:03:30;;;;;;;13.67;9.93;;;2.00;99.90;;;;;;5072807;28;20808;-80
2022/11/22 08:06:00;;;;;;;14.10;11.00;;;2.00;99.90;;;;;;5078960;28;20501;-79
2022/11/22 08:08:27;;;;;;;17.90;14.07;;;2.00;99.90;;;;;;5077384;28;20473;-79
2022/11/22 08:10:55;;;;;;;17.73;12.07;;;2.10;99.90;;;;;;5089137;27;20462;-80
2022/11/22 08:13:22;;;;;;;14.00;9.77;;;2.20;99.90;;;;;;5083023;28;20981;-80
2022/11/22 08:15:49;;;;;;;20.90;15.33;;;2.10;99.90;;;;;;5084293;28;20866;-79
2022/11/22 08:18:18;;;;;;;16.87;10.50;;;2.10;99.90;;;;;;5074325;28;20949;-80
2022/11/22 08:20:45;;;;;;;23.83;20.20;;;2.10;99.90;;;;;;5086504;28;20572;-80
2022/11/22 08:23:12;;;;;;;18.50;14.97;;;2.20;99.90;;;;;;5084100;28;21015;-79
2022/11/22 08:25:39;;;;;;;10.93;9.50;;;2.30;99.90;;;;;;5080989;28;20535;-80
2022/11/22 08:28:06;;;;;;;13.57;10.43;;;2.30;99.90;;;;;;5083311;28;20578;-79
2022/11/22 08:30:32;;;;;;;15.17;12.30;;;2.30;99.90;;;;;;5080501;28;20486;-79
2022/11/22 08:32:59;;;;;;;16.53;11.13;;;2.40;99.90;;;;;;5085255;28;20510;-79
2022/11/22 08:35:28;;;;;;;16.13;11.27;;;2.40;99.90;;;;;;5084011;28;20490;-80
2022/11/22 08:37:56;;;;;;;15.37;10.47;;;2.40;99.90;;;;;;5089096;27;20524;-79
2022/11/22 08:40:23;;;;;;;15.20;9.53;;;2.40;99.90;;;;;;5090903;28;20923;-79
2022/11/22 08:42:53;;;;;;;16.80;12.03;;;2.20;99.90;;;;;;5087805;28;20515;-79
2022/11/22 08:45:19;;;;;;;13.23;10.30;;;2.30;99.90;;;;;;5084563;28;20552;-81
2022/11/22 08:47:47;;;;;;;17.23;9.57;;;2.30;99.90;;;;;;5086119;28;21577;-81
2022/11/22 08:50:15;;;;;;;12.77;9.27;;;2.30;99.90;;;;;;5085713;28;20566;-81
2022/11/22 08:52:43;;;;;;;16.07;10.50;;;2.30;99.90;;;;;;5083016;28;20769;-82
2022/11/22 08:55:10;;;;;;;13.07;8.67;;;2.30;99.90;;;;;;5083999;28;21241;-81
2022/11/22 08:57:37;;;;;;;13.33;10.30;;;2.30;99.90;;;;;;5083081;28;20494;-81
2022/11/22 09:00:05;;;;;;;15.83;9.33;;;2.20;99.90;;;;;;5082895;28;21010;-81
2022/11/22 09:02:32;;;;;;;14.83;9.67;;;2.30;99.90;;;;;;5082815;28;20949;-81
2022/11/22 09:04:59;;;;;;;14.20;9.57;;;2.30;99.90;;;;;;5083768;28;21151;-81
2022/11/22 09:07:27;;;;;;;19.00;9.83;;;2.20;99.90;;;;;;5082438;28;21136;-81
2022/11/22 09:09:56;;;;;;;12.60;8.87;;;2.20;99.90;;;;;;5077091;28;21008;-81
2022/11/22 09:12:23;;;;;;;12.33;8.83;;;2.20;99.90;;;;;;5085794;28;20522;-81
2022/11/22 09:14:49;;;;;;;13.90;9.67;;;2.10;99.90;;;;;;5079963;28;20671;-82
2022/11/22 09:17:17;;;;;;;13.93;9.33;;;2.10;99.90;;;;;;5085004;28;20525;-82
2022/11/22 09:19:44;;;;;;;10.80;9.30;;;2.20;99.90;;;;;;5082373;28;21008;-81
2022/11/22 09:22:11;;;;;;;14.47;8.13;;;2.30;99.90;;;;;;5086448;28;20492;-81
2022/11/22 09:24:37;;;;;;;15.60;9.90;;;2.50;99.90;;;;;;5084727;28;20482;-82
2022/11/22 09:27:06;;;;;;;14.00;7.93;;;2.40;99.90;;;;;;5084368;28;20482;-81
2022/11/22 09:29:33;;;;;;;14.13;10.03;;;2.50;99.90;;;;;;5084638;28;20494;-81
2022/11/22 09:32:00;;;;;;;13.03;9.23;;;2.60;99.90;;;;;;5084537;28;20480;-81
2022/11/22 09:34:27;;;;;;;12.93;8.50;;;2.50;99.90;;;;;;5085907;28;20962;-80
2022/11/22 09:36:54;;;;;;;11.73;7.93;;;2.60;99.90;;;;;;5086112;28;20937;-81
2022/11/22 09:39:21;;;;;;;11.53;9.00;;;2.60;99.90;;;;;;5089319;28;20493;-81
2022/11/22 09:42:17;;;;;;;11.97;8.40;;;2.70;99.90;;;;;;5092704;28;20467;-81
2022/11/22 09:45:02;;;;;;;15.70;8.83;;;2.70;99.90;;;;;;5093227;28;20557;-81
2022/11/22 09:47:41;;;;;;;10.57;8.20;;;2.80;99.90;;;;;;5093240;28;20461;-81
2022/11/22 09:50:18;;;;;;;10.03;6.93;;;2.80;99.90;;;;;;5091093;28;21172;-81
2022/11/22 09:52:51;;;;;;;15.90;9.50;;;2.80;99.90;;;;;;5088830;28;20578;-82
2022/11/22 09:55:25;;;;;;;12.80;8.20;;;2.80;99.90;;;;;;5093437;28;20455;-79
2022/11/22 09:58:04;;;;;;;57.50;31.20;;;2.90;99.90;;;;;;5086625;27;20526;-81
2022/11/22 10:00:32;;;;;;;175.53;93.97;;;2.90;99.90;;;;;;5086611;28;20459;-82
2022/11/22 10:03:06;;;;;;;163.20;95.03;;;2.70;99.90;;;;;;5089494;28;20485;-80
2022/11/22 10:05:42;;;;;;;104.60;65.53;;;2.80;99.90;;;;;;5091850;28;21224;-80
2022/11/22 10:08:25;;;;;;;57.60;34.20;;;2.80;99.90;;;;;;5092944;28;20457;-80
2022/11/22 10:10:53;;;;;;;155.80;82.43;;;2.90;99.90;;;;;;5092680;27;20481;-80
2022/11/22 10:13:29;;;;;;;226.93;119.83;;;3.00;99.90;;;;;;5090493;28;20529;-81
2022/11/22 10:16:02;;;;;;;162.93;94.80;;;3.00;99.90;;;;;;5085851;28;20537;-80
2022/11/22 10:18:37;;;;;;;43.77;27.13;;;3.00;99.90;;;;;;5090266;28;20494;-80
2022/11/22 10:21:07;;;;;;;49.30;35.37;;;3.10;99.90;;;;;;5094337;28;20493;-79
2022/11/22 10:23:34;;;;;;;18.13;10.80;;;3.10;99.90;;;;;;5098334;28;21148;-79
2022/11/22 10:26:06;;;;;;;12.00;9.27;;;3.20;99.90;;;;;;5090338;28;20473;-79
2022/11/22 10:28:36;;;;;;;14.80;10.67;;;3.20;99.90;;;;;;5089852;27;20921;-80
2022/11/22 10:31:09;;;;;;;12.60;9.90;;;3.20;99.90;;;;;;5087415;28;20515;-79
2022/11/22 10:33:42;;;;;;;11.20;8.53;;;3.20;99.90;;;;;;5089233;28;20511;-79
2022/11/22 10:36:23;;;;;;;14.03;8.30;;;3.20;99.90;;;;;;5088585;27;21030;-80
2022/11/22 10:39:23;;;;;;;14.37;12.00;;;3.30;99.90;;;;;;5086729;27;21258;-79
2022/11/22 10:42:08;;;;;;;12.87;8.93;;;3.20;99.90;;;;;;5086999;28;21003;-80
2022/11/22 10:44:47;;;;;;;12.10;7.90;;;3.30;99.90;;;;;;5089978;28;20550;-81
2022/11/22 10:47:22;;;;;;;11.90;8.43;;;3.20;99.90;;;;;;5088193;27;20456;-80
2022/11/22 10:50:00;;;;;;;12.27;7.93;;;3.10;99.90;;;;;;5092836;28;20458;-80
2022/11/22 10:52:36;;;;;;;14.27;8.53;;;3.00;99.90;;;;;;5089639;28;20490;-80
2022/11/22 10:55:18;;;;;;;12.20;7.60;;;3.00;99.90;;;;;;5088310;28;20454;-80
2022/11/22 10:57:55;;;;;;;9.20;6.83;;;3.00;99.90;;;;;;5088785;28;20462;-79
2022/11/22 11:00:25;;;;;;;13.27;7.63;;;3.10;99.90;;;;;;5094365;28;20975;-79
2022/11/22 11:03:08;;;;;;;10.30;8.43;;;3.10;99.90;;;;;;5088081;28;20454;-79
2022/11/22 11:05:41;;;;;;;10.73;8.47;;;3.10;99.90;;;;;;5086028;28;20460;-78
2022/11/22 11:08:13;;;;;;;13.50;8.20;;;3.20;99.90;;;;;;5090439;28;20992;-80
2022/11/22 11:10:41;;;;;;;13.87;10.57;;;3.20;99.90;;;;;;5086421;27;20501;-80
2022/11/22 11:13:17;;;;;;;10.80;8.77;;;3.30;99.90;;;;;;5087166;28;20540;-79
2022/11/22 11:15:49;;;;;;;12.83;8.77;;;3.20;99.90;;;;;;5085666;28;20458;-79
2022/11/22 11:18:21;;;;;;;15.20;8.67;;;3.20;99.90;;;;;;5087044;28;20494;-79
2022/11/22 11:20:50;;;;;;;10.97;7.70;;;3.20;99.90;;;;;;5086555;28;20501;-80
2022/11/22 11:23:17;;;;;;;12.63;8.60;;;3.30;99.90;;;;;;5088298;28;20463;-81
2022/11/22 11:25:46;;;;;;;10.77;7.70;;;3.30;99.90;;;;;;5087354;28;20484;-81
2022/11/22 11:28:18;;;;;;;12.97;7.60;;;3.30;99.90;;;;;;5087698;28;20490;-79
2022/11/22 11:30:49;;;;;;;8.90;6.40;;;3.30;99.90;;;;;;5087124;28;20498;-79
2022/11/22 11:33:25;;;;;;;9.10;6.67;;;3.20;99.90;;;;;;5086121;28;20965;-79
2022/11/22 11:35:55;;;;;;;10.63;7.57;;;3.20;99.90;;;;;;5092414;28;20521;-78
2022/11/22 11:38:34;;;;;;;11.17;8.60;;;3.20;99.90;;;;;;5088955;28;20470;-77
2022/11/22 11:41:17;;;;;;;13.60;7.37;;;3.40;99.90;;;;;;5093004;28;20488;-78
2022/11/22 11:43:45;;;;;;;9.77;6.90;;;3.50;99.90;;;;;;5089533;28;20461;-77
2022/11/22 11:46:18;;;;;;;14.90;9.03;;;3.50;99.90;;;;;;5090691;28;20459;-78
2022/11/22 11:48:46;;;;;;;10.30;8.53;;;3.40;99.90;;;;;;5090720;28;20519;-78
2022/11/22 11:51:16;;;;;;;15.10;10.80;;;3.40;99.90;;;;;;5089759;28;20519;-79
2022/11/22 11:53:53;;;;;;;12.87;9.40;;;3.50;99.90;;;;;;5088581;28;20506;-79
2022/11/22 11:56:32;;;;;;;14.00;7.63;;;3.50;99.90;;;;;;5089247;28;20536;-79
2022/11/22 11:59:06;;;;;;;11.40;8.30;;;3.50;99.90;;;;;;5089204;28;20458;-80
2022/11/22 12:01:36;;;;;;;11.73;8.20;;;3.40;99.90;;;;;;5089733;28;20564;-80
2022/11/22 12:04:06;;;;;;;10.57;6.80;;;3.50;99.90;;;;;;5093939;28;20461;-77
2022/11/22 12:06:34;;;;;;;13.00;8.67;;;3.40;99.90;;;;;;5090855;28;20526;-78
2022/11/22 12:09:08;;;;;;;9.83;7.43;;;3.40;99.90;;;;;;5092951;28;20467;-77
2022/11/22 12:11:43;;;;;;;12.00;7.90;;;3.50;99.90;;;;;;5088477;27;20537;-79
2022/11/22 12:14:13;;;;;;;12.17;7.33;;;3.50;99.90;;;;;;5088141;28;20548;-80
2022/11/22 12:16:47;;;;;;;12.73;8.50;;;3.50;99.90;;;;;;5084421;28;20496;-79
2022/11/22 12:19:20;;;;;;;12.30;7.57;;;3.40;99.90;;;;;;5089199;28;20519;-79
2022/11/22 12:21:56;;;;;;;12.60;7.47;;;3.50;99.90;;;;;;5091456;28;20466;-78
2022/11/22 12:24:27;;;;;;;11.40;7.90;;;3.40;99.90;;;;;;5088404;28;20465;-79
2022/11/22 12:26:56;;;;;;;15.13;8.67;;;3.40;99.90;;;;;;5084263;27;21009;-80
2022/11/22 12:29:23;;;;;;;8.87;7.77;;;3.40;99.90;;;;;;5085494;28;20525;-79
2022/11/22 12:31:55;;;;;;;10.10;7.00;;;3.50;99.90;;;;;;5084159;28;20558;-78
2022/11/22 12:34:27;;;;;;;10.13;7.60;;;3.50;99.90;;;;;;5081148;28;20478;-78
2022/11/22 12:37:00;;;;;;;11.03;7.53;;;3.60;99.90;;;;;;5083819;28;21249;-78
2022/11/22 12:39:28;;;;;;;12.00;6.77;;;3.50;99.90;;;;;;5086543;28;20544;-78
2022/11/22 12:42:02;;;;;;;12.70;7.10;;;3.50;99.90;;;;;;5087738;28;20491;-77
2022/11/22 12:44:35;;;;;;;12.93;8.27;;;3.50;99.90;;;;;;5089039;28;20602;-79
2022/11/22 12:47:10;;;;;;;11.77;7.37;;;3.50;99.90;;;;;;5083159;28;20498;-79
2022/11/22 12:49:43;;;;;;;8.93;6.70;;;3.60;99.90;;;;;;5086750;28;20834;-79
2022/11/22 12:52:22;;;;;;;12.93;6.80;;;3.60;99.90;;;;;;5095776;28;20554;-79
2022/11/22 12:54:59;;;;;;;12.80;6.83;;;3.60;99.90;;;;;;5091725;28;20597;-79
2022/11/22 12:57:34;;;;;;;10.90;7.20;;;3.40;99.90;;;;;;5084863;28;20867;-79
2022/11/22 13:00:06;;;;;;;12.47;7.87;;;3.30;99.90;;;;;;5083815;28;20462;-80
2022/11/22 13:02:43;;;;;;;11.13;8.10;;;3.40;99.90;;;;;;5090561;28;20494;-77
2022/11/22 13:05:16;;;;;;;10.40;7.50;;;3.30;99.90;;;;;;5090870;28;20462;-76
2022/11/22 13:08:00;;;;;;;12.47;8.43;;;3.30;99.90;;;;;;5091005;27;20474;-77
2022/11/22 13:10:34;;;;;;;11.90;7.50;;;3.40;99.90;;;;;;5092073;28;20555;-77
2022/11/22 13:13:04;;;;;;;12.63;8.70;;;3.50;99.90;;;;;;5093569;28;20500;-77
2022/11/22 13:15:35;;;;;;;10.03;7.87;;;3.50;99.90;;;;;;5088949;27;21223;-77